sensor_id;sensor_type;location;lat;lon;timestamp;P1;durP1;ratioP1;P2;durP2;ratioP2
36443;SDS011;24692;45.642;13.806;2023-06-19T00:02:06;9.67;;;6.73;;
36443;SDS011;24692;45.642;13.806;2023-06-19T00:04:31;7.63;;;6.13;;
36443;SDS011;24692;45.642;13.806;2023-06-19T00:06:59;7.57;;;6.13;;
36443;SDS011;24692;45.642;13.806;2023-06-19T00:09:25;9.40;;;6.57;;
36443;SDS011;24692;45.642;13.806;2023-06-19T00:11:51;7.78;;;5.82;;
36443;SDS011;24692;45.642;13.806;2023-06-19T00:14:17;8.85;;;5.90;;
36443;SDS011;24692;45.642;13.806;2023-06-19T00:16:43;8.05;;;6.80;;
36443;SDS011;24692;45.642;13.806;2023-06-19T00:19:09;7.75;;;6.07;;
36443;SDS011;24692;45.642;13.806;2023-06-19T00:21:36;6.95;;;6.10;;
36443;SDS011;24692;45.642;13.806;2023-06-19T00:24:03;8.15;;;6.22;;
36443;SDS011;24692;45.642;13.806;2023-06-19T00:26:29;10.02;;;6.43;;
36443;SDS011;24692;45.642;13.806;2023-06-19T00:28:55;8.40;;;6.38;;
36443;SDS011;24692;45.642;13.806;2023-06-19T00:31:21;9.32;;;5.97;;
36443;SDS011;24692;45.642;13.806;2023-06-19T00:33:46;8.85;;;6.00;;
36443;SDS011;24692;45.642;13.806;2023-06-19T00:36:14;8.05;;;6.03;;
36443;SDS011;24692;45.642;13.806;2023-06-19T00:38:40;8.75;;;6.10;;
36443;SDS011;24692;45.642;13.806;2023-06-19T00:41:07;7.05;;;5.60;;
36443;SDS011;24692;45.642;13.806;2023-06-19T00:43:33;7.65;;;5.85;;
36443;SDS011;24692;45.642;13.806;2023-06-19T00:46:00;10.48;;;6.05;;
36443;SDS011;24692;45.642;13.806;2023-06-19T00:48:27;8.20;;;6.00;;
36443;SDS011;24692;45.642;13.806;2023-06-19T00:50:57;6.82;;;5.90;;
36443;SDS011;24692;45.642;13.806;2023-06-19T00:53:23;6.60;;;5.60;;
36443;SDS011;24692;45.642;13.806;2023-06-19T00:55:52;7.65;;;5.75;;
36443;SDS011;24692;45.642;13.806;2023-06-19T00:58:20;6.60;;;5.85;;
36443;SDS011;24692;45.642;13.806;2023-06-19T01:00:46;6.88;;;5.50;;
36443;SDS011;24692;45.642;13.806;2023-06-19T01:03:12;6.55;;;5.75;;
36443;SDS011;24692;45.642;13.806;2023-06-19T01:05:38;7.32;;;5.40;;
36443;SDS011;24692;45.642;13.806;2023-06-19T01:10:53;7.33;;;6.13;;
36443;SDS011;24692;45.642;13.806;2023-06-19T01:13:22;9.82;;;6.60;;
36443;SDS011;24692;45.642;13.806;2023-06-19T01:16:08;6.57;;;5.67;;
36443;SDS011;24692;45.642;13.806;2023-06-19T01:18:34;7.90;;;6.00;;
36443;SDS011;24692;45.642;13.806;2023-06-19T01:23:37;7.18;;;6.00;;
36443;SDS011;24692;45.642;13.806;2023-06-19T01:26:03;7.10;;;5.72;;
36443;SDS011;24692;45.642;13.806;2023-06-19T01:28:28;7.55;;;6.30;;
36443;SDS011;24692;45.642;13.806;2023-06-19T01:30:54;8.18;;;6.05;;
36443;SDS011;24692;45.642;13.806;2023-06-19T01:33:25;8.20;;;5.75;;
36443;SDS011;24692;45.642;13.806;2023-06-19T01:35:53;6.20;;;5.60;;
36443;SDS011;24692;45.642;13.806;2023-06-19T01:38:22;9.32;;;5.95;;
36443;SDS011;24692;45.642;13.806;2023-06-19T01:40:52;7.70;;;6.40;;
36443;SDS011;24692;45.642;13.806;2023-06-19T01:43:19;7.85;;;5.60;;
36443;SDS011;24692;45.642;13.806;2023-06-19T01:45:45;6.47;;;5.37;;
36443;SDS011;24692;45.642;13.806;2023-06-19T01:48:11;6.13;;;5.53;;
36443;SDS011;24692;45.642;13.806;2023-06-19T01:50:38;7.03;;;5.80;;
36443;SDS011;24692;45.642;13.806;2023-06-19T01:53:03;5.77;;;5.17;;
36443;SDS011;24692;45.642;13.806;2023-06-19T01:55:29;8.95;;;5.78;;
36443;SDS011;24692;45.642;13.806;2023-06-19T01:57:55;6.95;;;5.50;;
36443;SDS011;24692;45.642;13.806;2023-06-19T02:00:21;6.50;;;5.70;;
36443;SDS011;24692;45.642;13.806;2023-06-19T02:02:46;9.63;;;5.90;;
36443;SDS011;24692;45.642;13.806;2023-06-19T02:05:12;7.38;;;5.53;;
36443;SDS011;24692;45.642;13.806;2023-06-19T02:07:38;6.83;;;5.60;;
36443;SDS011;24692;45.642;13.806;2023-06-19T02:10:04;8.07;;;5.88;;
36443;SDS011;24692;45.642;13.806;2023-06-19T02:12:30;8.03;;;5.17;;
36443;SDS011;24692;45.642;13.806;2023-06-19T02:14:56;6.45;;;5.28;;
36443;SDS011;24692;45.642;13.806;2023-06-19T02:17:22;6.38;;;5.35;;
36443;SDS011;24692;45.642;13.806;2023-06-19T02:19:47;6.68;;;5.63;;
36443;SDS011;24692;45.642;13.806;2023-06-19T02:22:13;6.75;;;5.20;;
36443;SDS011;24692;45.642;13.806;2023-06-19T02:24:38;6.03;;;5.15;;
36443;SDS011;24692;45.642;13.806;2023-06-19T02:27:04;5.80;;;5.20;;
36443;SDS011;24692;45.642;13.806;2023-06-19T02:29:31;6.63;;;4.85;;
36443;SDS011;24692;45.642;13.806;2023-06-19T02:31:58;7.53;;;5.20;;
36443;SDS011;24692;45.642;13.806;2023-06-19T02:34:24;6.93;;;5.63;;
36443;SDS011;24692;45.642;13.806;2023-06-19T02:36:50;5.63;;;4.87;;
36443;SDS011;24692;45.642;13.806;2023-06-19T02:39:16;13.45;;;5.50;;
36443;SDS011;24692;45.642;13.806;2023-06-19T02:41:42;5.70;;;4.82;;
36443;SDS011;24692;45.642;13.806;2023-06-19T02:44:11;5.70;;;5.10;;
36443;SDS011;24692;45.642;13.806;2023-06-19T02:46:37;8.82;;;5.35;;
36443;SDS011;24692;45.642;13.806;2023-06-19T02:49:02;6.38;;;5.50;;
36443;SDS011;24692;45.642;13.806;2023-06-19T02:51:28;7.10;;;5.38;;
36443;SDS011;24692;45.642;13.806;2023-06-19T02:53:54;5.90;;;5.18;;
36443;SDS011;24692;45.642;13.806;2023-06-19T02:56:19;6.43;;;5.20;;
36443;SDS011;24692;45.642;13.806;2023-06-19T02:58:45;6.97;;;5.47;;
36443;SDS011;24692;45.642;13.806;2023-06-19T03:01:11;5.97;;;4.82;;
36443;SDS011;24692;45.642;13.806;2023-06-19T03:03:36;6.68;;;5.30;;
36443;SDS011;24692;45.642;13.806;2023-06-19T03:06:05;6.68;;;5.45;;
36443;SDS011;24692;45.642;13.806;2023-06-19T03:08:33;5.88;;;5.15;;
36443;SDS011;24692;45.642;13.806;2023-06-19T03:10:59;6.20;;;4.88;;
36443;SDS011;24692;45.642;13.806;2023-06-19T03:13:25;7.18;;;5.40;;
36443;SDS011;24692;45.642;13.806;2023-06-19T03:15:50;8.45;;;5.90;;
36443;SDS011;24692;45.642;13.806;2023-06-19T03:18:16;6.78;;;5.40;;
36443;SDS011;24692;45.642;13.806;2023-06-19T03:20:42;6.50;;;5.05;;
36443;SDS011;24692;45.642;13.806;2023-06-19T03:23:07;6.90;;;5.60;;
36443;SDS011;24692;45.642;13.806;2023-06-19T03:25:33;7.72;;;5.47;;
36443;SDS011;24692;45.642;13.806;2023-06-19T03:28:03;7.10;;;5.53;;
36443;SDS011;24692;45.642;13.806;2023-06-19T03:30:29;5.93;;;5.13;;
36443;SDS011;24692;45.642;13.806;2023-06-19T03:32:55;8.23;;;5.70;;
36443;SDS011;24692;45.642;13.806;2023-06-19T03:35:21;7.03;;;5.40;;
36443;SDS011;24692;45.642;13.806;2023-06-19T03:37:46;8.73;;;5.70;;
36443;SDS011;24692;45.642;13.806;2023-06-19T03:40:12;5.97;;;5.05;;
36443;SDS011;24692;45.642;13.806;2023-06-19T03:42:41;7.33;;;5.73;;
36443;SDS011;24692;45.642;13.806;2023-06-19T03:45:07;7.03;;;5.72;;
36443;SDS011;24692;45.642;13.806;2023-06-19T03:47:33;9.05;;;6.10;;
36443;SDS011;24692;45.642;13.806;2023-06-19T03:49:59;6.57;;;5.33;;
36443;SDS011;24692;45.642;13.806;2023-06-19T03:52:24;7.68;;;5.78;;
36443;SDS011;24692;45.642;13.806;2023-06-19T03:54:50;7.17;;;5.20;;
36443;SDS011;24692;45.642;13.806;2023-06-19T03:57:16;6.75;;;5.50;;
36443;SDS011;24692;45.642;13.806;2023-06-19T03:59:41;5.93;;;5.13;;
36443;SDS011;24692;45.642;13.806;2023-06-19T04:02:07;7.80;;;5.05;;
36443;SDS011;24692;45.642;13.806;2023-06-19T04:04:32;7.07;;;5.57;;
36443;SDS011;24692;45.642;13.806;2023-06-19T04:06:58;6.65;;;4.90;;
36443;SDS011;24692;45.642;13.806;2023-06-19T04:09:26;6.45;;;5.30;;
36443;SDS011;24692;45.642;13.806;2023-06-19T04:11:52;8.50;;;5.88;;
36443;SDS011;24692;45.642;13.806;2023-06-19T04:14:17;6.28;;;5.25;;
36443;SDS011;24692;45.642;13.806;2023-06-19T04:16:43;7.53;;;5.60;;
36443;SDS011;24692;45.642;13.806;2023-06-19T04:19:09;7.32;;;5.00;;
36443;SDS011;24692;45.642;13.806;2023-06-19T04:21:35;6.07;;;5.00;;
36443;SDS011;24692;45.642;13.806;2023-06-19T04:24:00;6.95;;;5.45;;
36443;SDS011;24692;45.642;13.806;2023-06-19T04:26:26;6.78;;;5.22;;
36443;SDS011;24692;45.642;13.806;2023-06-19T04:28:51;8.88;;;5.30;;
36443;SDS011;24692;45.642;13.806;2023-06-19T04:31:17;8.52;;;5.60;;
36443;SDS011;24692;45.642;13.806;2023-06-19T04:33:46;7.28;;;5.63;;
36443;SDS011;24692;45.642;13.806;2023-06-19T04:36:12;9.00;;;5.82;;
36443;SDS011;24692;45.642;13.806;2023-06-19T04:38:37;6.80;;;5.40;;
36443;SDS011;24692;45.642;13.806;2023-06-19T04:41:03;8.77;;;5.68;;
36443;SDS011;24692;45.642;13.806;2023-06-19T04:43:28;6.70;;;5.18;;
36443;SDS011;24692;45.642;13.806;2023-06-19T04:45:54;6.00;;;5.40;;
36443;SDS011;24692;45.642;13.806;2023-06-19T04:48:20;7.95;;;5.43;;
36443;SDS011;24692;45.642;13.806;2023-06-19T04:50:49;8.10;;;5.63;;
36443;SDS011;24692;45.642;13.806;2023-06-19T04:53:16;8.15;;;5.50;;
36443;SDS011;24692;45.642;13.806;2023-06-19T04:55:42;6.65;;;5.25;;
36443;SDS011;24692;45.642;13.806;2023-06-19T04:58:08;8.50;;;5.40;;
36443;SDS011;24692;45.642;13.806;2023-06-19T05:00:34;8.02;;;5.65;;
36443;SDS011;24692;45.642;13.806;2023-06-19T05:03:00;7.07;;;5.18;;
36443;SDS011;24692;45.642;13.806;2023-06-19T05:05:27;7.32;;;4.88;;
36443;SDS011;24692;45.642;13.806;2023-06-19T05:07:53;7.15;;;5.28;;
36443;SDS011;24692;45.642;13.806;2023-06-19T05:10:18;6.68;;;5.78;;
36443;SDS011;24692;45.642;13.806;2023-06-19T05:12:44;14.65;;;5.57;;
36443;SDS011;24692;45.642;13.806;2023-06-19T05:15:10;12.18;;;5.63;;
36443;SDS011;24692;45.642;13.806;2023-06-19T05:17:36;10.98;;;5.82;;
36443;SDS011;24692;45.642;13.806;2023-06-19T05:20:04;11.10;;;5.53;;
36443;SDS011;24692;45.642;13.806;2023-06-19T05:22:31;7.68;;;5.32;;
36443;SDS011;24692;45.642;13.806;2023-06-19T05:24:59;8.10;;;5.18;;
36443;SDS011;24692;45.642;13.806;2023-06-19T05:27:25;5.72;;;5.10;;
36443;SDS011;24692;45.642;13.806;2023-06-19T05:29:50;9.05;;;5.25;;
36443;SDS011;24692;45.642;13.806;2023-06-19T05:32:16;12.65;;;5.50;;
36443;SDS011;24692;45.642;13.806;2023-06-19T05:34:41;9.55;;;5.32;;
36443;SDS011;24692;45.642;13.806;2023-06-19T05:37:07;9.07;;;5.82;;
36443;SDS011;24692;45.642;13.806;2023-06-19T05:39:33;8.02;;;5.38;;
36443;SDS011;24692;45.642;13.806;2023-06-19T05:41:58;12.60;;;5.72;;
36443;SDS011;24692;45.642;13.806;2023-06-19T05:44:24;11.10;;;5.20;;
36443;SDS011;24692;45.642;13.806;2023-06-19T05:46:49;9.20;;;5.40;;
36443;SDS011;24692;45.642;13.806;2023-06-19T05:49:15;9.45;;;5.60;;
36443;SDS011;24692;45.642;13.806;2023-06-19T05:51:41;6.35;;;5.47;;
36443;SDS011;24692;45.642;13.806;2023-06-19T05:54:06;9.57;;;5.45;;
36443;SDS011;24692;45.642;13.806;2023-06-19T05:56:32;7.05;;;5.35;;
36443;SDS011;24692;45.642;13.806;2023-06-19T05:58:59;7.90;;;5.28;;
36443;SDS011;24692;45.642;13.806;2023-06-19T06:01:25;7.10;;;5.35;;
36443;SDS011;24692;45.642;13.806;2023-06-19T06:03:56;7.53;;;5.40;;
36443;SDS011;24692;45.642;13.806;2023-06-19T06:06:23;5.63;;;5.00;;
36443;SDS011;24692;45.642;13.806;2023-06-19T06:08:50;10.88;;;5.85;;
36443;SDS011;24692;45.642;13.806;2023-06-19T06:11:17;7.85;;;5.68;;
36443;SDS011;24692;45.642;13.806;2023-06-19T06:13:42;12.10;;;5.18;;
36443;SDS011;24692;45.642;13.806;2023-06-19T06:16:08;7.47;;;5.65;;
36443;SDS011;24692;45.642;13.806;2023-06-19T06:18:34;8.50;;;5.57;;
36443;SDS011;24692;45.642;13.806;2023-06-19T06:21:00;9.52;;;5.93;;
36443;SDS011;24692;45.642;13.806;2023-06-19T06:23:25;8.13;;;5.60;;
36443;SDS011;24692;45.642;13.806;2023-06-19T06:25:51;11.05;;;5.95;;
36443;SDS011;24692;45.642;13.806;2023-06-19T06:28:17;8.73;;;5.60;;
36443;SDS011;24692;45.642;13.806;2023-06-19T06:30:43;10.15;;;5.68;;
36443;SDS011;24692;45.642;13.806;2023-06-19T06:33:09;7.45;;;5.80;;
36443;SDS011;24692;45.642;13.806;2023-06-19T06:35:34;9.50;;;5.55;;
36443;SDS011;24692;45.642;13.806;2023-06-19T06:38:01;7.70;;;5.15;;
36443;SDS011;24692;45.642;13.806;2023-06-19T06:40:27;12.80;;;5.10;;
36443;SDS011;24692;45.642;13.806;2023-06-19T06:42:53;13.13;;;5.78;;
36443;SDS011;24692;45.642;13.806;2023-06-19T06:45:18;13.13;;;5.55;;
36443;SDS011;24692;45.642;13.806;2023-06-19T06:47:48;10.07;;;5.13;;
36443;SDS011;24692;45.642;13.806;2023-06-19T06:50:15;14.25;;;5.45;;
36443;SDS011;24692;45.642;13.806;2023-06-19T06:52:40;8.27;;;5.05;;
36443;SDS011;24692;45.642;13.806;2023-06-19T06:55:08;8.70;;;5.35;;
36443;SDS011;24692;45.642;13.806;2023-06-19T06:57:34;7.43;;;5.28;;
36443;SDS011;24692;45.642;13.806;2023-06-19T07:00:02;8.63;;;5.30;;
36443;SDS011;24692;45.642;13.806;2023-06-19T07:02:34;5.85;;;4.85;;
36443;SDS011;24692;45.642;13.806;2023-06-19T07:05:00;7.28;;;5.10;;
36443;SDS011;24692;45.642;13.806;2023-06-19T07:07:26;7.30;;;5.28;;
36443;SDS011;24692;45.642;13.806;2023-06-19T07:09:53;8.20;;;4.65;;
36443;SDS011;24692;45.642;13.806;2023-06-19T07:12:24;8.57;;;5.07;;
36443;SDS011;24692;45.642;13.806;2023-06-19T07:14:55;9.07;;;5.07;;
36443;SDS011;24692;45.642;13.806;2023-06-19T07:17:21;11.10;;;4.93;;
36443;SDS011;24692;45.642;13.806;2023-06-19T07:19:47;8.35;;;5.03;;
36443;SDS011;24692;45.642;13.806;2023-06-19T07:22:13;6.15;;;4.93;;
36443;SDS011;24692;45.642;13.806;2023-06-19T07:24:44;8.82;;;4.82;;
36443;SDS011;24692;45.642;13.806;2023-06-19T07:27:14;6.55;;;4.60;;
36443;SDS011;24692;45.642;13.806;2023-06-19T07:29:43;5.88;;;4.55;;
36443;SDS011;24692;45.642;13.806;2023-06-19T07:32:09;5.47;;;4.30;;
36443;SDS011;24692;45.642;13.806;2023-06-19T07:34:35;6.97;;;4.68;;
36443;SDS011;24692;45.642;13.806;2023-06-19T07:37:05;5.10;;;4.45;;
36443;SDS011;24692;45.642;13.806;2023-06-19T07:39:31;6.30;;;5.05;;
36443;SDS011;24692;45.642;13.806;2023-06-19T07:41:57;8.35;;;5.05;;
36443;SDS011;24692;45.642;13.806;2023-06-19T07:44:25;6.22;;;4.50;;
36443;SDS011;24692;45.642;13.806;2023-06-19T07:46:53;7.60;;;4.60;;
36443;SDS011;24692;45.642;13.806;2023-06-19T07:49:18;6.78;;;4.80;;
36443;SDS011;24692;45.642;13.806;2023-06-19T07:51:44;8.15;;;4.80;;
36443;SDS011;24692;45.642;13.806;2023-06-19T07:54:10;10.15;;;4.85;;
36443;SDS011;24692;45.642;13.806;2023-06-19T07:56:35;6.45;;;5.15;;
36443;SDS011;24692;45.642;13.806;2023-06-19T07:59:02;6.13;;;4.80;;
36443;SDS011;24692;45.642;13.806;2023-06-19T08:01:28;6.07;;;4.80;;
36443;SDS011;24692;45.642;13.806;2023-06-19T08:03:54;5.93;;;4.97;;
36443;SDS011;24692;45.642;13.806;2023-06-19T08:06:20;7.93;;;5.35;;
36443;SDS011;24692;45.642;13.806;2023-06-19T08:08:50;8.00;;;5.50;;
36443;SDS011;24692;45.642;13.806;2023-06-19T08:11:16;6.80;;;5.22;;
36443;SDS011;24692;45.642;13.806;2023-06-19T08:13:44;8.27;;;5.45;;
36443;SDS011;24692;45.642;13.806;2023-06-19T08:16:09;8.15;;;5.72;;
36443;SDS011;24692;45.642;13.806;2023-06-19T08:18:43;8.35;;;6.30;;
36443;SDS011;24692;45.642;13.806;2023-06-19T08:21:29;8.95;;;6.00;;
36443;SDS011;24692;45.642;13.806;2023-06-19T08:23:57;11.30;;;5.63;;
36443;SDS011;24692;45.642;13.806;2023-06-19T08:26:24;7.50;;;5.25;;
36443;SDS011;24692;45.642;13.806;2023-06-19T08:28:49;8.52;;;5.60;;
36443;SDS011;24692;45.642;13.806;2023-06-19T08:31:16;9.60;;;5.50;;
36443;SDS011;24692;45.642;13.806;2023-06-19T08:33:41;10.52;;;5.75;;
36443;SDS011;24692;45.642;13.806;2023-06-19T08:36:12;6.55;;;5.55;;
36443;SDS011;24692;45.642;13.806;2023-06-19T08:38:39;7.32;;;5.97;;
36443;SDS011;24692;45.642;13.806;2023-06-19T08:41:09;7.00;;;5.57;;
36443;SDS011;24692;45.642;13.806;2023-06-19T08:43:35;8.93;;;5.55;;
36443;SDS011;24692;45.642;13.806;2023-06-19T08:46:15;6.28;;;5.50;;
36443;SDS011;24692;45.642;13.806;2023-06-19T08:48:45;7.15;;;5.25;;
36443;SDS011;24692;45.642;13.806;2023-06-19T08:51:19;6.10;;;5.50;;
36443;SDS011;24692;45.642;13.806;2023-06-19T08:53:46;7.10;;;5.32;;
36443;SDS011;24692;45.642;13.806;2023-06-19T08:56:17;7.97;;;5.15;;
36443;SDS011;24692;45.642;13.806;2023-06-19T08:58:45;7.95;;;5.28;;
36443;SDS011;24692;45.642;13.806;2023-06-19T09:01:13;7.00;;;4.70;;
36443;SDS011;24692;45.642;13.806;2023-06-19T09:03:42;5.57;;;5.00;;
36443;SDS011;24692;45.642;13.806;2023-06-19T09:06:15;8.73;;;4.63;;
36443;SDS011;24692;45.642;13.806;2023-06-19T09:08:41;6.20;;;4.88;;
36443;SDS011;24692;45.642;13.806;2023-06-19T09:11:08;8.63;;;4.80;;
36443;SDS011;24692;45.642;13.806;2023-06-19T09:13:34;5.07;;;4.57;;
36443;SDS011;24692;45.642;13.806;2023-06-19T09:16:05;7.15;;;5.28;;
36443;SDS011;24692;45.642;13.806;2023-06-19T09:18:46;5.50;;;4.97;;
36443;SDS011;24692;45.642;13.806;2023-06-19T09:24:37;6.90;;;4.68;;
36443;SDS011;24692;45.642;13.806;2023-06-19T09:30:00;5.63;;;4.50;;
36443;SDS011;24692;45.642;13.806;2023-06-19T09:32:27;5.72;;;4.45;;
36443;SDS011;24692;45.642;13.806;2023-06-19T09:34:56;5.65;;;4.60;;
36443;SDS011;24692;45.642;13.806;2023-06-19T09:37:28;5.57;;;4.85;;
36443;SDS011;24692;45.642;13.806;2023-06-19T09:42:40;6.28;;;4.85;;
36443;SDS011;24692;45.642;13.806;2023-06-19T09:45:11;6.50;;;4.68;;
36443;SDS011;24692;45.642;13.806;2023-06-19T09:47:54;5.22;;;4.72;;
36443;SDS011;24692;45.642;13.806;2023-06-19T09:50:19;8.05;;;4.53;;
36443;SDS011;24692;45.642;13.806;2023-06-19T09:52:52;6.68;;;5.00;;
36443;SDS011;24692;45.642;13.806;2023-06-19T09:55:17;8.48;;;4.50;;
36443;SDS011;24692;45.642;13.806;2023-06-19T09:57:44;5.10;;;4.60;;
36443;SDS011;24692;45.642;13.806;2023-06-19T10:00:11;5.35;;;4.70;;
36443;SDS011;24692;45.642;13.806;2023-06-19T10:02:48;4.97;;;4.47;;
36443;SDS011;24692;45.642;13.806;2023-06-19T10:05:14;7.53;;;4.65;;
36443;SDS011;24692;45.642;13.806;2023-06-19T10:07:41;9.27;;;4.72;;
36443;SDS011;24692;45.642;13.806;2023-06-19T10:10:10;8.20;;;5.03;;
36443;SDS011;24692;45.642;13.806;2023-06-19T10:12:48;6.18;;;4.68;;
36443;SDS011;24692;45.642;13.806;2023-06-19T10:15:21;4.70;;;4.30;;
36443;SDS011;24692;45.642;13.806;2023-06-19T10:18:01;5.32;;;4.70;;
36443;SDS011;24692;45.642;13.806;2023-06-19T10:20:29;4.60;;;4.20;;
36443;SDS011;24692;45.642;13.806;2023-06-19T10:23:01;8.48;;;5.05;;
36443;SDS011;24692;45.642;13.806;2023-06-19T10:25:44;6.18;;;4.65;;
36443;SDS011;24692;45.642;13.806;2023-06-19T10:30:43;5.65;;;5.05;;
36443;SDS011;24692;45.642;13.806;2023-06-19T10:33:09;7.93;;;4.45;;
36443;SDS011;24692;45.642;13.806;2023-06-19T10:35:38;5.10;;;4.55;;
36443;SDS011;24692;45.642;13.806;2023-06-19T10:38:05;6.10;;;4.78;;
36443;SDS011;24692;45.642;13.806;2023-06-19T10:40:32;5.68;;;4.47;;
36443;SDS011;24692;45.642;13.806;2023-06-19T10:43:01;5.10;;;4.25;;
36443;SDS011;24692;45.642;13.806;2023-06-19T10:45:27;5.00;;;4.50;;
36443;SDS011;24692;45.642;13.806;2023-06-19T10:47:53;6.20;;;4.65;;
36443;SDS011;24692;45.642;13.806;2023-06-19T10:50:20;5.93;;;4.40;;
36443;SDS011;24692;45.642;13.806;2023-06-19T10:52:46;4.82;;;4.32;;
36443;SDS011;24692;45.642;13.806;2023-06-19T10:55:13;5.05;;;4.20;;
36443;SDS011;24692;45.642;13.806;2023-06-19T10:57:40;5.82;;;4.32;;
36443;SDS011;24692;45.642;13.806;2023-06-19T11:00:10;5.22;;;4.30;;
36443;SDS011;24692;45.642;13.806;2023-06-19T11:02:40;5.13;;;4.30;;
36443;SDS011;24692;45.642;13.806;2023-06-19T11:05:08;5.82;;;4.25;;
36443;SDS011;24692;45.642;13.806;2023-06-19T11:07:35;8.00;;;4.35;;
36443;SDS011;24692;45.642;13.806;2023-06-19T11:10:02;4.93;;;4.47;;
36443;SDS011;24692;45.642;13.806;2023-06-19T11:12:28;5.97;;;4.50;;
36443;SDS011;24692;45.642;13.806;2023-06-19T11:14:54;7.07;;;4.65;;
36443;SDS011;24692;45.642;13.806;2023-06-19T11:17:19;9.98;;;5.45;;
36443;SDS011;24692;45.642;13.806;2023-06-19T11:19:49;5.97;;;4.55;;
36443;SDS011;24692;45.642;13.806;2023-06-19T11:22:17;6.05;;;4.50;;
36443;SDS011;24692;45.642;13.806;2023-06-19T11:24:44;5.78;;;4.72;;
36443;SDS011;24692;45.642;13.806;2023-06-19T11:27:17;7.15;;;4.60;;
36443;SDS011;24692;45.642;13.806;2023-06-19T11:29:44;6.55;;;5.05;;
36443;SDS011;24692;45.642;13.806;2023-06-19T11:32:14;5.88;;;4.95;;
36443;SDS011;24692;45.642;13.806;2023-06-19T11:34:42;5.35;;;4.80;;
36443;SDS011;24692;45.642;13.806;2023-06-19T11:37:15;7.35;;;4.30;;
36443;SDS011;24692;45.642;13.806;2023-06-19T11:39:46;5.35;;;4.72;;
36443;SDS011;24692;45.642;13.806;2023-06-19T11:42:12;4.97;;;4.57;;
36443;SDS011;24692;45.642;13.806;2023-06-19T11:47:32;7.20;;;5.05;;
36443;SDS011;24692;45.642;13.806;2023-06-19T11:49:58;5.70;;;5.13;;
36443;SDS011;24692;45.642;13.806;2023-06-19T11:52:25;6.28;;;5.07;;
36443;SDS011;24692;45.642;13.806;2023-06-19T11:54:51;7.35;;;4.80;;
36443;SDS011;24692;45.642;13.806;2023-06-19T11:57:16;7.07;;;5.15;;
36443;SDS011;24692;45.642;13.806;2023-06-19T11:59:42;5.38;;;4.88;;
36443;SDS011;24692;45.642;13.806;2023-06-19T12:02:08;6.20;;;5.40;;
36443;SDS011;24692;45.642;13.806;2023-06-19T12:04:34;5.90;;;5.25;;
36443;SDS011;24692;45.642;13.806;2023-06-19T12:07:00;6.40;;;5.50;;
36443;SDS011;24692;45.642;13.806;2023-06-19T12:09:26;6.00;;;4.85;;
36443;SDS011;24692;45.642;13.806;2023-06-19T12:11:55;5.45;;;4.90;;
36443;SDS011;24692;45.642;13.806;2023-06-19T12:14:21;9.10;;;5.40;;
36443;SDS011;24692;45.642;13.806;2023-06-19T12:16:47;5.60;;;5.10;;
36443;SDS011;24692;45.642;13.806;2023-06-19T12:19:12;7.55;;;5.07;;
36443;SDS011;24692;45.642;13.806;2023-06-19T12:21:38;5.68;;;4.93;;
36443;SDS011;24692;45.642;13.806;2023-06-19T12:24:04;7.45;;;5.00;;
36443;SDS011;24692;45.642;13.806;2023-06-19T12:26:30;5.97;;;5.25;;
36443;SDS011;24692;45.642;13.806;2023-06-19T12:29:02;6.38;;;5.03;;
36443;SDS011;24692;45.642;13.806;2023-06-19T12:31:28;5.82;;;5.22;;
36443;SDS011;24692;45.642;13.806;2023-06-19T12:33:54;7.35;;;4.82;;
36443;SDS011;24692;45.642;13.806;2023-06-19T12:36:20;4.95;;;4.53;;
36443;SDS011;24692;45.642;13.806;2023-06-19T12:38:45;5.63;;;4.88;;
36443;SDS011;24692;45.642;13.806;2023-06-19T12:41:12;6.03;;;4.95;;
36443;SDS011;24692;45.642;13.806;2023-06-19T12:43:38;7.57;;;4.82;;
36443;SDS011;24692;45.642;13.806;2023-06-19T12:46:04;4.80;;;4.30;;
36443;SDS011;24692;45.642;13.806;2023-06-19T12:48:29;6.13;;;4.65;;
36443;SDS011;24692;45.642;13.806;2023-06-19T12:50:55;5.20;;;4.60;;
36443;SDS011;24692;45.642;13.806;2023-06-19T12:53:21;6.10;;;5.30;;
36443;SDS011;24692;45.642;13.806;2023-06-19T12:55:51;5.35;;;4.85;;
36443;SDS011;24692;45.642;13.806;2023-06-19T12:58:18;6.82;;;4.78;;
36443;SDS011;24692;45.642;13.806;2023-06-19T13:00:44;6.20;;;4.72;;
36443;SDS011;24692;45.642;13.806;2023-06-19T13:03:09;8.73;;;5.45;;
36443;SDS011;24692;45.642;13.806;2023-06-19T13:05:35;7.45;;;5.70;;
36443;SDS011;24692;45.642;13.806;2023-06-19T13:08:01;6.88;;;5.15;;
36443;SDS011;24692;45.642;13.806;2023-06-19T13:10:26;6.85;;;5.53;;
36443;SDS011;24692;45.642;13.806;2023-06-19T13:12:52;6.32;;;5.63;;
36443;SDS011;24692;45.642;13.806;2023-06-19T13:15:18;6.03;;;5.40;;
36443;SDS011;24692;45.642;13.806;2023-06-19T13:17:43;10.00;;;6.18;;
36443;SDS011;24692;45.642;13.806;2023-06-19T13:20:09;8.50;;;6.45;;
36443;SDS011;24692;45.642;13.806;2023-06-19T13:22:35;6.90;;;5.68;;
36443;SDS011;24692;45.642;13.806;2023-06-19T13:25:01;8.80;;;6.38;;
36443;SDS011;24692;45.642;13.806;2023-06-19T13:27:27;8.75;;;6.13;;
36443;SDS011;24692;45.642;13.806;2023-06-19T13:29:53;7.28;;;6.20;;
36443;SDS011;24692;45.642;13.806;2023-06-19T13:32:19;9.30;;;6.60;;
36443;SDS011;24692;45.642;13.806;2023-06-19T13:34:45;7.60;;;6.85;;
36443;SDS011;24692;45.642;13.806;2023-06-19T13:37:11;11.82;;;7.30;;
36443;SDS011;24692;45.642;13.806;2023-06-19T13:39:36;11.00;;;8.80;;
36443;SDS011;24692;45.642;13.806;2023-06-19T13:42:03;9.88;;;7.80;;
36443;SDS011;24692;45.642;13.806;2023-06-19T13:44:29;12.75;;;9.70;;
36443;SDS011;24692;45.642;13.806;2023-06-19T13:46:54;12.43;;;10.35;;
36443;SDS011;24692;45.642;13.806;2023-06-19T13:49:20;15.50;;;12.25;;
36443;SDS011;24692;45.642;13.806;2023-06-19T13:51:46;12.27;;;10.52;;
36443;SDS011;24692;45.642;13.806;2023-06-19T13:54:12;16.30;;;11.98;;
36443;SDS011;24692;45.642;13.806;2023-06-19T13:56:38;17.50;;;11.02;;
36443;SDS011;24692;45.642;13.806;2023-06-19T13:59:05;22.00;;;11.05;;
36443;SDS011;24692;45.642;13.806;2023-06-19T14:01:31;14.95;;;11.93;;
36443;SDS011;24692;45.642;13.806;2023-06-19T14:03:57;16.10;;;13.20;;
36443;SDS011;24692;45.642;13.806;2023-06-19T14:06:23;17.30;;;13.57;;
36443;SDS011;24692;45.642;13.806;2023-06-19T14:08:50;12.73;;;11.32;;
36443;SDS011;24692;45.642;13.806;2023-06-19T14:11:15;15.00;;;12.80;;
36443;SDS011;24692;45.642;13.806;2023-06-19T14:13:42;19.83;;;12.00;;
36443;SDS011;24692;45.642;13.806;2023-06-19T14:16:08;14.13;;;10.50;;
36443;SDS011;24692;45.642;13.806;2023-06-19T14:18:33;11.40;;;9.85;;
36443;SDS011;24692;45.642;13.806;2023-06-19T14:21:01;12.82;;;10.77;;
36443;SDS011;24692;45.642;13.806;2023-06-19T14:23:27;12.73;;;11.32;;
36443;SDS011;24692;45.642;13.806;2023-06-19T14:25:53;11.23;;;9.95;;
36443;SDS011;24692;45.642;13.806;2023-06-19T14:28:18;11.73;;;10.52;;
36443;SDS011;24692;45.642;13.806;2023-06-19T14:30:44;16.33;;;10.40;;
36443;SDS011;24692;45.642;13.806;2023-06-19T14:33:09;12.60;;;9.73;;
36443;SDS011;24692;45.642;13.806;2023-06-19T14:35:40;12.75;;;10.25;;
36443;SDS011;24692;45.642;13.806;2023-06-19T14:38:06;16.30;;;11.23;;
36443;SDS011;24692;45.642;13.806;2023-06-19T14:40:32;13.63;;;11.68;;
36443;SDS011;24692;45.642;13.806;2023-06-19T14:42:57;13.65;;;11.63;;
36443;SDS011;24692;45.642;13.806;2023-06-19T14:45:23;12.45;;;10.10;;
36443;SDS011;24692;45.642;13.806;2023-06-19T14:47:49;11.13;;;10.02;;
36443;SDS011;24692;45.642;13.806;2023-06-19T14:50:15;13.98;;;11.52;;